Time;durP1;ratioP1;P1;durP2;ratioP2;P2;SDS_P1;SDS_P2;PMS_P1;PMS_P2;Temp;Humidity;BMP_temperature;BMP_pressure;BME280_temperature;BME280_humidity;BME280_pressure;Samples;Min_cycle;Max_cycle;Signal;HPM_P1;HPM_P2
2021/03/28 00:00:50;;;;;;;19.42;4.55;;;;;;;5.86;62.57;102367.84;5028851;28;20495;-67
2021/03/28 00:03:21;;;;;;;16.20;3.90;;;;;;;5.87;61.89;102369.59;5026893;28;20061;-66
2021/03/28 00:05:50;;;;;;;14.07;3.47;;;;;;;5.89;62.39;102362.78;5029534;28;20400;-66
2021/03/28 00:08:20;;;;;;;16.40;3.88;;;;;;;5.93;62.59;102366.31;5027076;28;20461;-68
2021/03/28 00:10:50;;;;;;;16.02;3.60;;;;;;;5.95;61.88;102364.66;5027154;28;20049;-68
2021/03/28 00:13:19;;;;;;;15.27;3.65;;;;;;;5.95;62.68;102368.91;5023347;28;20053;-67
2021/03/28 00:15:59;;;;;;;21.35;3.88;;;;;;;6.01;63.32;102361.38;5031619;28;20736;-68
2021/03/28 00:18:29;;;;;;;14.80;4.68;;;;;;;5.96;62.55;102366.41;5025690;28;20554;-68
2021/03/28 00:21:06;;;;;;;10.63;3.53;;;;;;;5.94;62.59;102362.03;5028569;28;20057;-68
2021/03/28 00:23:42;;;;;;;16.42;4.10;;;;;;;5.99;63.21;102363.00;5032391;28;20045;-67
2021/03/28 00:26:21;;;;;;;17.40;3.53;;;;;;;5.96;63.51;102352.59;5023631;28;20055;-68
2021/03/28 00:28:51;;;;;;;14.65;3.60;;;;;;;5.97;64.00;102342.31;5029423;28;20054;-68
2021/03/28 00:31:23;;;;;;;19.48;4.28;;;;;;;5.98;63.57;102338.91;5030998;28;20049;-68
2021/03/28 00:34:21;;;;;;;20.40;4.32;;;;;;;5.92;63.59;102338.72;5037225;28;20057;-68
2021/03/28 00:36:52;;;;;;;12.82;3.70;;;;;;;5.90;64.00;102342.97;5020914;28;20052;-66
2021/03/28 00:39:37;;;;;;;15.82;3.53;;;;;;;5.90;64.65;102349.03;5030102;28;20037;-65
2021/03/28 00:42:11;;;;;;;14.02;3.58;;;;;;;5.91;64.95;102349.91;5025743;28;20062;-67
2021/03/28 00:44:47;;;;;;;13.60;3.30;;;;;;;5.90;64.21;102341.28;5066291;22;20055;-67
2021/03/28 00:47:20;;;;;;;14.90;4.15;;;;;;;5.88;64.66;102348.13;5055013;28;20368;-69
2021/03/28 00:49:48;;;;;;;10.50;2.60;;;;;;;5.91;64.64;102337.88;5066258;28;20105;-68
2021/03/28 00:52:26;;;;;;;15.48;3.22;;;;;;;6.01;64.50;102335.56;5067686;28;20056;-66
2021/03/28 00:54:55;;;;;;;13.15;3.05;;;;;;;6.05;65.09;102333.09;5059127;28;20422;-66
2021/03/28 00:57:26;;;;;;;17.25;3.33;;;;;;;6.09;64.05;102328.88;5066430;28;20044;-67
2021/03/28 00:59:56;;;;;;;15.02;4.43;;;;;;;6.09;65.34;102321.13;5069131;28;20052;-68
2021/03/28 01:02:28;;;;;;;12.52;3.03;;;;;;;6.08;65.04;102334.88;5060331;28;20056;-67
2021/03/28 01:05:36;;;;;;;14.68;4.50;;;;;;;6.07;65.27;102320.19;5065885;28;20048;-66
2021/03/28 01:08:09;;;;;;;13.13;3.22;;;;;;;6.12;64.96;102321.22;4986400;28;20058;-66
2021/03/28 01:10:53;;;;;;;18.60;3.53;;;;;;;6.10;65.04;102320.28;4985543;28;20500;-66
2021/03/28 01:13:58;;;;;;;10.50;3.20;;;;;;;6.02;65.04;102322.66;5038189;28;20121;-66
2021/03/28 01:17:31;;;;;;;21.93;4.27;;;;;;;6.03;65.54;102318.41;5067276;28;20144;-66
2021/03/28 01:20:25;;;;;;;10.57;2.78;;;;;;;5.97;65.76;102315.59;5025651;28;20112;-66
2021/03/28 01:23:16;;;;;;;12.07;3.47;;;;;;;6.07;65.75;102303.00;5033271;28;20052;-65
2021/03/28 01:26:06;;;;;;;14.63;3.50;;;;;;;6.21;65.66;102302.44;5058327;28;20049;-65
2021/03/28 01:28:43;;;;;;;17.70;3.20;;;;;;;6.28;64.30;102300.91;5066438;28;20049;-68
2021/03/28 01:31:25;;;;;;;14.48;2.60;;;;;;;6.23;65.03;102293.03;5065148;28;20055;-66
2021/03/28 01:33:55;;;;;;;13.98;2.92;;;;;;;6.17;65.45;102286.00;5069816;28;20101;-67
2021/03/28 01:36:28;;;;;;;20.30;3.40;;;;;;;6.14;65.69;102287.66;5067439;28;20071;-66
2021/03/28 01:39:03;;;;;;;13.35;3.33;;;;;;;6.18;65.50;102286.91;5066623;28;20114;-65
2021/03/28 01:41:33;;;;;;;14.88;3.72;;;;;;;6.11;65.25;102290.16;5068980;28;20044;-66
2021/03/28 01:44:09;;;;;;;11.30;2.83;;;;;;;6.05;65.96;102285.69;5067460;28;20402;-66
2021/03/28 01:46:50;;;;;;;10.57;3.40;;;;;;;6.10;66.08;102280.66;5065416;28;20069;-66
2021/03/28 01:49:26;;;;;;;14.57;3.35;;;;;;;6.11;66.19;102285.88;5066153;28;20044;-67
2021/03/28 01:52:02;;;;;;;17.17;3.13;;;;;;;6.04;66.21;102286.53;5067178;28;20048;-66
2021/03/28 01:54:50;;;;;;;14.02;3.38;;;;;;;6.13;66.18;102283.31;5064175;28;20044;-67
2021/03/28 01:57:23;;;;;;;12.65;2.97;;;;;;;6.06;66.30;102290.03;5062367;28;20041;-67
2021/03/28 02:00:19;;;;;;;16.20;4.05;;;;;;;5.98;66.47;102292.41;5067757;28;20055;-66
2021/03/28 02:02:55;;;;;;;13.10;3.50;;;;;;;5.98;66.74;102288.94;5066271;28;20098;-66
2021/03/28 02:05:31;;;;;;;16.40;3.15;;;;;;;5.88;67.16;102285.28;5067118;28;20053;-66
2021/03/28 02:08:10;;;;;;;16.17;2.90;;;;;;;5.90;67.04;102283.56;5068962;28;20048;-66
2021/03/28 02:10:53;;;;;;;12.25;2.70;;;;;;;5.86;67.04;102281.78;5064061;28;20057;-68
2021/03/28 02:13:26;;;;;;;19.67;3.05;;;;;;;5.78;67.16;102294.47;5062764;28;20055;-67
2021/03/28 02:16:07;;;;;;;10.77;2.47;;;;;;;5.70;68.03;102291.69;5072062;28;20064;-66
2021/03/28 02:18:52;;;;;;;11.55;2.42;;;;;;;5.70;67.67;102286.53;5073186;28;20041;-67
2021/03/28 02:21:28;;;;;;;13.70;3.28;;;;;;;5.73;67.42;102285.75;5068109;28;20057;-66
2021/03/28 02:23:59;;;;;;;13.40;3.05;;;;;;;5.80;67.70;102297.09;5068096;28;20044;-67
2021/03/28 02:26:34;;;;;;;14.00;3.30;;;;;;;5.79;67.44;102295.38;5067002;28;20044;-67
2021/03/28 02:29:12;;;;;;;12.75;2.75;;;;;;;5.80;67.75;102284.19;5062359;28;20045;-67
2021/03/28 02:31:54;;;;;;;10.15;2.00;;;;;;;5.72;67.48;102289.16;5066649;28;20053;-67
2021/03/28 02:34:27;;;;;;;13.35;2.85;;;;;;;5.70;68.19;102288.25;5065005;28;20043;-66
2021/03/28 02:37:03;;;;;;;14.50;2.70;;;;;;;5.72;67.65;102287.44;5063670;28;20053;-67
2021/03/28 02:39:42;;;;;;;13.52;2.97;;;;;;;5.68;68.43;102284.75;5064794;28;20068;-66
2021/03/28 02:42:27;;;;;;;16.30;2.70;;;;;;;5.72;68.58;102289.16;5067993;28;20054;-65
2021/03/28 02:45:06;;;;;;;14.77;2.78;;;;;;;5.67;68.55;102286.47;5063209;28;20072;-67
2021/03/28 02:47:54;;;;;;;11.45;2.65;;;;;;;5.64;68.44;102278.63;5063111;28;20421;-65
2021/03/28 02:54:03;;;;;;;19.92;3.63;;;;;;;5.60;68.76;102285.44;5060762;28;20505;-67
2021/03/28 02:56:43;;;;;;;13.93;3.42;;;;;;;5.57;68.67;102285.34;5061337;28;20101;-66
2021/03/28 02:59:27;;;;;;;19.45;2.92;;;;;;;5.56;69.04;102278.41;5067056;28;20044;-66
2021/03/28 03:02:13;;;;;;;10.73;2.78;;;;;;;5.58;69.24;102287.09;5062194;28;20052;-65
2021/03/28 03:04:51;;;;;;;16.67;3.42;;;;;;;5.55;69.00;102281.84;5060801;28;20051;-67
2021/03/28 03:07:48;;;;;;;12.57;2.95;;;;;;;5.54;69.58;102285.25;5061464;28;20118;-66
2021/03/28 03:10:28;;;;;;;15.10;2.90;;;;;;;5.54;69.59;102282.66;5049578;28;20079;-67
2021/03/28 03:13:04;;;;;;;20.40;3.67;;;;;;;5.58;69.67;102286.22;5065498;28;20051;-67
2021/03/28 03:15:36;;;;;;;14.60;3.00;;;;;;;5.52;69.90;102286.94;5064600;28;20056;-66
2021/03/28 03:19:01;;;;;;;12.88;2.85;;;;;;;5.44;69.94;102288.41;5064582;28;20052;-66
2021/03/28 03:22:00;;;;;;;8.27;2.05;;;;;;;5.45;69.96;102280.72;5063011;28;20693;-66
2021/03/28 03:25:03;;;;;;;12.60;3.00;;;;;;;5.47;70.43;102282.47;5023287;28;20044;-64
2021/03/28 03:28:07;;;;;;;19.27;3.22;;;;;;;5.50;70.08;102282.53;5062309;28;20045;-66
2021/03/28 03:30:51;;;;;;;12.48;3.05;;;;;;;5.49;70.39;102278.25;5065620;28;20041;-65
2021/03/28 03:33:59;;;;;;;10.57;2.50;;;;;;;5.47;70.54;102283.34;5066110;28;20056;-65
2021/03/28 03:36:50;;;;;;;16.25;2.70;;;;;;;5.42;70.91;102284.94;5064101;28;20053;-66
2021/03/28 03:39:32;;;;;;;11.30;3.08;;;;;;;5.37;70.71;102287.41;5065697;28;20115;-67
2021/03/28 03:42:25;;;;;;;17.67;3.17;;;;;;;5.37;70.86;102276.19;5063461;28;20131;-66
2021/03/28 03:45:34;;;;;;;13.07;2.92;;;;;;;5.33;70.20;102269.22;5063413;28;20514;-67
2021/03/28 03:48:11;;;;;;;12.05;2.95;;;;;;;5.29;70.16;102268.25;5022858;28;20048;-66
2021/03/28 03:51:00;;;;;;;10.60;2.75;;;;;;;5.24;70.62;102270.69;5062670;28;20047;-67
2021/03/28 03:53:42;;;;;;;12.13;3.10;;;;;;;5.27;70.69;102280.22;5061376;28;20051;-65
2021/03/28 03:56:17;;;;;;;13.82;2.88;;;;;;;5.24;71.01;102281.00;5063069;28;20052;-67
2021/03/28 03:59:03;;;;;;;11.23;2.90;;;;;;;5.31;71.27;102282.03;5063666;28;20041;-66
2021/03/28 04:01:38;;;;;;;13.95;3.17;;;;;;;5.25;70.70;102271.56;5062513;28;20078;-67
2021/03/28 04:04:10;;;;;;;11.27;3.67;;;;;;;5.27;70.84;102280.22;5069551;28;20056;-66
2021/03/28 04:07:01;;;;;;;13.02;3.00;;;;;;;5.27;70.99;102281.09;5064107;28;20052;-66
2021/03/28 04:09:35;;;;;;;14.00;3.03;;;;;;;5.28;71.34;102282.84;5061793;28;20049;-67
2021/03/28 04:12:16;;;;;;;14.38;3.17;;;;;;;5.26;71.02;102284.50;5063306;28;20048;-66
2021/03/28 04:15:02;;;;;;;10.70;2.53;;;;;;;5.26;71.35;102284.50;5066678;28;20106;-65
2021/03/28 04:17:46;;;;;;;10.60;2.47;;;;;;;5.29;71.33;102273.41;5062172;28;20049;-66
2021/03/28 04:20:19;;;;;;;14.32;3.30;;;;;;;5.29;70.85;102279.44;5061022;28;20052;-65
2021/03/28 04:23:23;;;;;;;17.30;2.78;;;;;;;5.26;71.63;102283.63;5063004;28;20497;-68
2021/03/28 04:26:04;;;;;;;16.17;3.13;;;;;;;5.28;71.58;102287.16;5060441;28;20045;-67
2021/03/28 04:28:53;;;;;;;11.70;2.50;;;;;;;5.30;71.13;102290.63;5060371;28;20057;-66
2021/03/28 04:31:39;;;;;;;13.73;2.70;;;;;;;5.25;71.96;102297.38;5056352;28;20051;-66
2021/03/28 04:34:13;;;;;;;9.25;2.28;;;;;;;5.29;71.42;102294.91;5061708;28;20134;-65
2021/03/28 04:36:48;;;;;;;13.98;3.38;;;;;;;5.34;71.70;102286.44;5059680;28;20047;-64
2021/03/28 04:39:35;;;;;;;13.43;2.70;;;;;;;5.40;71.58;102286.59;5061329;28;20448;-66
2021/03/28 04:42:40;;;;;;;12.90;3.13;;;;;;;5.38;71.36;102289.16;5065411;28;20041;-66
2021/03/28 04:45:41;;;;;;;14.98;3.25;;;;;;;5.40;71.47;102291.75;5063740;28;20060;-67
2021/03/28 04:48:39;;;;;;;11.63;2.40;;;;;;;5.38;71.32;102293.41;5064837;28;20048;-66
2021/03/28 04:51:38;;;;;;;13.35;2.25;;;;;;;5.38;71.82;102290.84;5061096;28;20090;-66
2021/03/28 04:54:30;;;;;;;15.63;2.92;;;;;;;5.38;71.99;102298.56;5063867;28;20040;-66
2021/03/28 04:57:18;;;;;;;12.70;2.85;;;;;;;5.43;71.63;102287.56;5060908;28;20057;-65
2021/03/28 05:00:02;;;;;;;9.07;1.80;;;;;;;5.49;71.59;102286.84;5065184;28;20076;-65
2021/03/28 05:02:48;;;;;;;15.75;2.72;;;;;;;5.43;71.62;102287.56;5064313;28;20079;-66
2021/03/28 05:05:37;;;;;;;;;;;;;;;5.41;71.78;102293.50;5062437;28;20064;-66
2021/03/28 05:08:33;;;;;;;11.50;2.72;;;;;;;5.42;71.94;102290.97;5065857;28;19927;-66
2021/03/28 05:11:41;;;;;;;18.40;2.85;;;;;;;5.44;71.31;102294.47;5060471;28;20068;-66
2021/03/28 05:14:43;;;;;;;12.52;2.75;;;;;;;5.46;72.15;102297.06;5066070;28;20063;-65
2021/03/28 05:17:41;;;;;;;15.13;2.03;;;;;;;5.43;72.14;102297.88;5060309;28;20045;-66
2021/03/28 05:20:46;;;;;;;9.77;1.88;;;;;;;5.42;72.29;102293.53;5062438;28;20091;-66
2021/03/28 05:23:38;;;;;;;8.75;2.03;;;;;;;5.45;71.96;102288.47;5005811;28;20046;-66
2021/03/28 05:26:36;;;;;;;11.18;2.03;;;;;;;5.44;72.22;102286.72;5062563;28;20057;-66
2021/03/28 05:29:35;;;;;;;11.80;1.85;;;;;;;5.45;72.04;102282.41;5061822;28;20049;-66
2021/03/28 05:32:21;;;;;;;12.30;2.30;;;;;;;5.49;72.34;102286.84;5067350;28;20528;-66
2021/03/28 05:35:24;;;;;;;9.60;2.60;;;;;;;5.52;71.79;102279.19;5061601;28;20044;-66
2021/03/28 05:38:12;;;;;;;10.65;2.13;;;;;;;5.53;71.94;102270.63;5034028;28;20098;-69
2021/03/28 05:41:02;;;;;;;8.98;2.55;;;;;;;5.55;71.91;102268.94;5063648;28;20056;-67
2021/03/28 05:44:06;;;;;;;13.00;2.60;;;;;;;5.59;71.94;102264.72;5061987;28;20068;-67
2021/03/28 05:46:57;;;;;;;15.63;2.78;;;;;;;5.63;71.80;102261.41;5062572;28;20058;-67
2021/03/28 05:49:42;;;;;;;10.98;2.30;;;;;;;5.67;71.78;102262.34;5062699;28;20041;-64
2021/03/28 05:52:58;;;;;;;10.32;2.90;;;;;;;5.70;71.43;102260.72;5065848;28;20071;-65
2021/03/28 05:56:19;;;;;;;11.38;2.70;;;;;;;5.73;72.02;102265.97;5039028;28;20056;-65
2021/03/28 05:58:58;;;;;;;10.25;2.45;;;;;;;5.78;71.52;102263.50;5065381;28;20638;-65
2021/03/28 06:01:37;;;;;;;10.18;2.95;;;;;;;5.79;71.98;102266.97;5059460;28;20044;-65
2021/03/28 06:04:40;;;;;;;13.65;3.17;;;;;;;5.86;71.81;102269.72;5065728;28;20056;-66
2021/03/28 06:07:38;;;;;;;13.85;2.28;;;;;;;5.86;71.63;102261.97;5069792;28;20063;-67
2021/03/28 06:10:40;;;;;;;13.90;2.92;;;;;;;5.93;71.63;102267.31;5063430;28;20048;-65
2021/03/28 06:13:38;;;;;;;9.60;2.92;;;;;;;5.98;71.70;102281.19;5066842;28;20510;-65
2021/03/28 06:16:22;;;;;;;9.82;2.03;;;;;;;6.01;71.62;102278.72;5067001;28;20516;-66
2021/03/28 06:19:23;;;;;;;9.82;1.83;;;;;;;6.01;71.47;102277.00;5065668;28;20502;-66
2021/03/28 06:22:28;;;;;;;7.90;2.00;;;;;;;6.07;71.48;102271.13;5064214;28;20048;-67
2021/03/28 06:25:37;;;;;;;11.15;2.08;;;;;;;6.12;71.69;102269.53;5067974;28;20063;-66
2021/03/28 06:28:47;;;;;;;11.13;2.65;;;;;;;6.23;71.28;102272.38;4996621;28;20093;-67
2021/03/28 06:32:03;;;;;;;12.65;2.88;;;;;;;6.27;71.43;102278.47;5060201;28;20064;-65
2021/03/28 06:35:07;;;;;;;9.45;2.25;;;;;;;6.30;71.46;102268.22;5063597;28;20056;-66
2021/03/28 06:38:12;;;;;;;11.35;2.40;;;;;;;6.45;71.19;102257.34;5024628;28;20167;-65
2021/03/28 06:40:47;;;;;;;15.48;2.22;;;;;;;6.54;71.13;102262.72;5060765;28;20044;-64
2021/03/28 06:43:49;;;;;;;9.85;2.40;;;;;;;6.60;71.10;102264.56;5064850;28;20501;-66
2021/03/28 06:46:46;;;;;;;11.52;2.47;;;;;;;6.69;70.94;102269.94;5067122;28;20059;-65
2021/03/28 06:49:33;;;;;;;10.23;2.05;;;;;;;6.77;70.54;102273.56;5058585;28;20098;-66
2021/03/28 06:52:10;;;;;;;13.70;2.17;;;;;;;6.81;70.46;102272.81;5058194;28;20404;-66
2021/03/28 06:55:09;;;;;;;13.82;2.53;;;;;;;6.90;70.36;102271.25;5056665;28;20090;-60
2021/03/28 06:58:13;;;;;;;11.07;2.30;;;;;;;6.96;70.46;102264.50;5059984;28;20052;-66
2021/03/28 07:01:15;;;;;;;10.48;2.50;;;;;;;7.09;69.84;102275.97;5056515;28;20053;-65
2021/03/28 07:04:21;;;;;;;11.90;2.25;;;;;;;7.13;69.92;102280.38;5061654;28;20110;-65
2021/03/28 07:06:54;;;;;;;9.90;1.97;;;;;;;7.27;69.49;102277.16;5058915;28;20056;-65
2021/03/28 07:09:49;;;;;;;14.20;2.83;;;;;;;7.34;69.68;102273.84;5060600;28;20352;-66
2021/03/28 07:12:33;;;;;;;10.45;2.22;;;;;;;7.38;69.18;102272.19;5059377;28;20044;-66
2021/03/28 07:15:23;;;;;;;8.98;2.65;;;;;;;7.51;68.87;102270.72;5055796;28;20094;-65
2021/03/28 07:18:22;;;;;;;10.80;2.03;;;;;;;7.54;69.24;102276.81;5056705;28;20997;-66
2021/03/28 07:21:11;;;;;;;9.70;2.55;;;;;;;7.66;69.10;102278.75;5059365;28;20055;-66
2021/03/28 07:24:01;;;;;;;10.23;2.47;;;;;;;7.73;68.31;102275.44;5059846;28;20045;-66
2021/03/28 07:26:49;;;;;;;11.35;2.70;;;;;;;7.92;67.73;102276.59;5055986;28;20052;-67
2021/03/28 07:29:54;;;;;;;13.95;2.47;;;;;;;8.04;67.42;102283.69;5058869;28;20056;-65
2021/03/28 07:32:32;;;;;;;10.80;2.22;;;;;;;8.15;67.44;102283.88;5058828;28;20052;-68
2021/03/28 07:35:52;;;;;;;11.25;2.28;;;;;;;8.33;66.79;102280.72;5057781;28;20040;-66
2021/03/28 07:39:02;;;;;;;13.25;3.67;;;;;;;8.53;66.33;102277.56;5058623;28;20048;-66
2021/03/28 07:41:48;;;;;;;10.63;2.78;;;;;;;8.59;65.85;102287.13;5039114;28;20053;-67
2021/03/28 07:44:53;;;;;;;12.32;2.40;;;;;;;8.65;66.16;102285.50;5057510;28;20052;-68
2021/03/28 07:48:12;;;;;;;7.22;2.40;;;;;;;8.83;65.52;102295.25;5060870;28;20548;-68
2021/03/28 07:51:11;;;;;;;8.20;2.15;;;;;;;9.12;64.45;102293.91;5055559;28;20040;-69
2021/03/28 07:54:20;;;;;;;11.55;3.47;;;;;;;9.11;64.52;102289.56;5054030;28;20571;-66
2021/03/28 07:57:09;;;;;;;12.10;2.13;;;;;;;9.25;64.25;102290.56;5059923;28;20056;-67
2021/03/28 07:59:58;;;;;;;8.77;2.08;;;;;;;9.28;64.24;102290.63;5063674;28;20071;-66
2021/03/28 08:02:51;;;;;;;12.35;2.17;;;;;;;9.49;64.12;102299.50;5057853;28;20157;-66
2021/03/28 08:05:43;;;;;;;8.10;2.00;;;;;;;9.55;63.17;102290.91;5058502;28;20052;-68
2021/03/28 08:08:24;;;;;;;6.60;1.80;;;;;;;9.64;63.29;102291.84;5054638;28;20052;-65
2021/03/28 08:11:23;;;;;;;11.07;2.05;;;;;;;9.79;63.33;102285.06;5059298;28;20083;-66
2021/03/28 08:14:28;;;;;;;11.52;2.00;;;;;;;9.97;63.08;102297.38;5055006;28;20060;-66
2021/03/28 08:17:11;;;;;;;11.48;2.13;;;;;;;10.10;62.99;102296.59;5035706;28;20067;-66
2021/03/28 08:23:18;;;;;;;10.98;3.05;;;;;;;10.31;63.05;102300.22;5051952;28;20048;-66
2021/03/28 08:26:29;;;;;;;13.48;2.55;;;;;;;10.47;62.57;102288.22;5055881;28;20056;-67
2021/03/28 08:29:26;;;;;;;12.15;2.85;;;;;;;10.45;62.83;102299.47;5054826;28;20044;-66
2021/03/28 08:32:17;;;;;;;11.23;2.42;;;;;;;10.19;63.28;102290.59;5054381;28;20067;-68
2021/03/28 08:35:21;;;;;;;10.10;2.20;;;;;;;10.27;62.90;102286.31;5054382;28;20152;-68
2021/03/28 08:38:19;;;;;;;15.60;4.40;;;;;;;10.38;62.85;102288.16;5056236;28;20062;-68
2021/03/28 08:41:14;;;;;;;10.63;2.67;;;;;;;10.29;63.10;102281.13;5054971;28;20589;-70
2021/03/28 08:44:33;;;;;;;12.35;2.42;;;;;;;10.40;62.51;102286.44;5055895;28;20056;-64
2021/03/28 08:50:33;;;;;;;12.07;3.08;;;;;;;10.60;62.47;102288.28;5045667;28;20584;-66
2021/03/28 08:53:24;;;;;;;10.40;2.60;;;;;;;10.63;61.70;102278.75;5064877;28;20041;-62
2021/03/28 08:56:28;;;;;;;13.60;2.90;;;;;;;10.73;61.14;102272.75;5048557;28;20044;-66
2021/03/28 08:58:58;;;;;;;12.05;3.13;;;;;;;10.78;61.41;102280.56;5055123;28;20069;-68
2021/03/28 09:01:36;;;;;;;9.93;2.55;;;;;;;10.69;61.58;102276.19;5054856;28;20052;-63
2021/03/28 09:04:13;;;;;;;8.32;2.30;;;;;;;10.90;60.78;102271.94;5052375;28;20052;-65
2021/03/28 09:07:13;;;;;;;12.38;2.85;;;;;;;11.11;60.76;102272.88;5052835;28;20041;-66
2021/03/28 09:09:47;;;;;;;7.90;2.60;;;;;;;11.32;58.65;102272.97;4974219;28;20077;-65
2021/03/28 09:12:27;;;;;;;11.60;1.60;;;;;;;11.48;58.65;102276.47;5037505;28;20099;-67
2021/03/28 09:15:19;;;;;;;12.60;2.80;;;;;;;11.51;58.28;102281.69;5056709;28;20056;-65
2021/03/28 09:17:58;;;;;;;9.55;1.90;;;;;;;11.58;56.87;102268.66;5059344;28;20498;-67
2021/03/28 09:20:38;;;;;;;11.10;2.63;;;;;;;11.47;56.20;102266.91;5056053;28;20044;-65
2021/03/28 09:23:22;;;;;;;7.97;1.80;;;;;;;11.58;56.36;102261.69;5051279;28;20148;-64
2021/03/28 09:25:59;;;;;;;9.02;1.92;;;;;;;11.59;55.92;102262.59;5059685;28;20052;-64
2021/03/28 09:28:38;;;;;;;9.23;1.75;;;;;;;11.48;55.61;102260.84;5057233;28;20044;-63
2021/03/28 09:31:12;;;;;;;11.73;2.20;;;;;;;11.60;55.60;102265.19;5058105;28;20076;-64
2021/03/28 09:33:54;;;;;;;12.98;2.90;;;;;;;11.62;55.58;102253.03;5059059;28;20102;-65
2021/03/28 09:36:43;;;;;;;13.20;2.38;;;;;;;11.71;56.28;102254.78;5056208;28;20045;-65
2021/03/28 09:39:36;;;;;;;12.45;2.10;;;;;;;11.74;55.88;102253.91;5057093;28;20052;-66
2021/03/28 09:42:33;;;;;;;8.65;2.10;;;;;;;12.08;53.63;102256.53;5053895;28;20048;-65
2021/03/28 09:45:42;;;;;;;9.32;1.88;;;;;;;12.07;51.80;102242.63;5051356;28;20049;-61
2021/03/28 09:48:54;;;;;;;8.90;2.17;;;;;;;12.02;51.00;102239.16;5058110;28;20055;-63
2021/03/28 09:51:46;;;;;;;10.63;2.20;;;;;;;12.07;51.65;102245.22;5044223;28;20056;-65
2021/03/28 09:54:39;;;;;;;8.23;2.13;;;;;;;12.15;50.81;102236.53;5041317;28;20055;-63
2021/03/28 09:57:21;;;;;;;12.80;1.80;;;;;;;12.32;50.81;102245.22;5059841;28;20078;-65
2021/03/28 10:00:18;;;;;;;10.73;1.98;;;;;;;12.33;48.15;102241.69;5059142;28;20544;-63
2021/03/28 10:02:54;;;;;;;9.63;1.92;;;;;;;12.47;45.57;102243.41;5061269;28;20061;-66
2021/03/28 10:05:25;;;;;;;7.53;1.65;;;;;;;12.40;45.21;102246.06;5052608;28;20056;-66
2021/03/28 10:08:08;;;;;;;8.73;1.60;;;;;;;12.49;44.81;102250.34;5059145;28;20893;-64
2021/03/28 10:11:01;;;;;;;8.20;1.50;;;;;;;12.60;44.36;102261.63;5053306;28;20049;-65
2021/03/28 10:13:47;;;;;;;12.27;2.42;;;;;;;12.48;44.58;102260.81;5064807;28;20469;-65
2021/03/28 10:16:21;;;;;;;8.68;1.75;;;;;;;12.42;45.14;102251.25;5066703;28;20052;-63
2021/03/28 10:19:03;;;;;;;13.25;2.92;;;;;;;12.42;44.73;102246.03;5069797;28;20048;-65
2021/03/28 10:21:47;;;;;;;11.98;1.67;;;;;;;12.38;46.29;102237.34;5066620;28;20052;-65
2021/03/28 10:25:01;;;;;;;6.70;1.30;;;;;;;12.40;45.68;102240.84;5066037;28;20048;-65
2021/03/28 10:27:54;;;;;;;9.05;1.80;;;;;;;12.49;45.38;102252.97;5054979;28;20049;-66
2021/03/28 10:30:44;;;;;;;10.77;2.65;;;;;;;12.69;46.11;102258.13;5062448;28;20048;-65
2021/03/28 10:33:29;;;;;;;7.65;1.30;;;;;;;12.69;45.09;102259.88;5064743;28;20418;-65
2021/03/28 10:36:12;;;;;;;7.45;1.33;;;;;;;12.68;45.41;102273.78;5059849;28;20049;-62
2021/03/28 10:39:12;;;;;;;8.85;1.33;;;;;;;12.69;45.37;102259.88;5065811;28;20079;-65
2021/03/28 10:41:59;;;;;;;10.00;1.85;;;;;;;12.75;45.19;102267.69;5059684;28;20122;-65
2021/03/28 10:44:40;;;;;;;7.78;1.80;;;;;;;12.77;44.26;102260.72;5065005;28;20049;-66
2021/03/28 10:47:46;;;;;;;7.63;1.67;;;;;;;12.87;44.86;102261.53;5064890;28;20040;-64
2021/03/28 10:50:50;;;;;;;7.00;1.50;;;;;;;12.95;45.64;102261.53;5063169;28;20490;-61
2021/03/28 10:53:44;;;;;;;5.13;1.48;;;;;;;13.07;43.71;102259.72;5061835;28;20144;-63
2021/03/28 10:56:34;;;;;;;12.73;2.75;;;;;;;13.18;44.26;102262.25;5066435;28;20036;-66
2021/03/28 10:59:54;;;;;;;10.98;3.47;;;;;;;13.20;44.60;102251.81;5062578;28;20114;-64
2021/03/28 11:03:11;;;;;;;8.75;3.15;;;;;;;13.30;44.60;102248.28;5062192;28;20094;-62
2021/03/28 11:06:01;;;;;;;10.57;2.22;;;;;;;13.26;45.39;102246.53;5044984;28;20072;-62
2021/03/28 11:08:45;;;;;;;13.02;2.28;;;;;;;13.32;45.85;102253.47;5061954;28;20060;-62
2021/03/28 11:11:50;;;;;;;7.57;1.73;;;;;;;13.26;43.59;102250.91;5063471;28;20143;-65
2021/03/28 11:14:44;;;;;;;9.63;2.00;;;;;;;13.29;42.70;102251.75;5064564;28;20059;-65
2021/03/28 11:17:41;;;;;;;9.15;1.85;;;;;;;13.28;43.07;102246.53;5071748;22;20041;-68
2021/03/28 11:20:23;;;;;;;8.45;2.50;;;;;;;13.40;44.36;102243.88;5047457;28;20045;-66
2021/03/28 11:23:05;;;;;;;10.00;1.85;;;;;;;13.54;43.90;102241.16;5051076;28;20399;-67
2021/03/28 11:25:34;;;;;;;9.32;2.47;;;;;;;13.77;43.18;102259.31;5056975;28;20528;-68
2021/03/28 11:28:42;;;;;;;11.75;1.85;;;;;;;13.84;44.18;102260.09;5046566;28;20689;-64
2021/03/28 11:31:15;;;;;;;10.10;2.20;;;;;;;13.71;43.75;102245.41;5019291;28;20731;-66
2021/03/28 11:33:56;;;;;;;9.45;1.70;;;;;;;13.56;44.05;102247.25;5042315;28;20060;-66
2021/03/28 11:36:26;;;;;;;12.45;1.50;;;;;;;13.54;42.47;102246.38;5052277;28;20053;-67
2021/03/28 11:39:20;;;;;;;9.77;1.90;;;;;;;13.68;41.56;102252.38;5035815;28;20066;-70
2021/03/28 11:41:52;;;;;;;7.45;1.60;;;;;;;13.59;41.94;102249.84;5051597;28;20061;-66
2021/03/28 11:44:32;;;;;;;7.40;1.80;;;;;;;13.71;41.74;102264.56;5043633;28;20138;-66
2021/03/28 11:47:14;;;;;;;7.82;1.85;;;;;;;13.64;43.14;102263.72;5040735;28;20045;-67
2021/03/28 11:49:53;;;;;;;7.32;1.58;;;;;;;13.78;41.98;102252.31;5041912;28;20746;-66
2021/03/28 11:52:28;;;;;;;5.47;1.35;;;;;;;13.81;42.25;102266.22;5052878;28;20049;-66
2021/03/28 11:55:02;;;;;;;;;;;;;;;14.00;41.76;102258.22;5044944;28;20045;-68
2021/03/28 11:57:32;;;;;;;6.45;1.55;;;;;;;14.00;41.99;102260.81;5052136;28;19921;-67
2021/03/28 12:00:21;;;;;;;7.57;1.65;;;;;;;14.22;42.00;102263.25;5045497;28;20044;-67
2021/03/28 12:03:35;;;;;;;7.85;1.73;;;;;;;14.11;41.62;102253.75;5035468;28;20054;-67
2021/03/28 12:06:08;;;;;;;10.65;1.92;;;;;;;14.03;41.29;102249.47;5040906;28;20049;-63
2021/03/28 12:08:54;;;;;;;6.93;1.58;;;;;;;14.22;41.43;102250.16;5051250;28;20178;-65
2021/03/28 12:11:42;;;;;;;8.15;1.83;;;;;;;14.34;40.27;102243.91;5047328;28;20041;-65
2021/03/28 12:14:19;;;;;;;6.85;1.55;;;;;;;14.24;39.84;102246.63;5043172;28;20049;-65
2021/03/28 12:17:15;;;;;;;9.05;1.70;;;;;;;14.23;40.63;102241.44;5045876;28;20041;-65
2021/03/28 12:19:47;;;;;;;11.15;1.80;;;;;;;14.26;39.99;102244.88;5042217;28;20064;-65
2021/03/28 12:22:17;;;;;;;7.60;1.98;;;;;;;14.23;39.01;102239.66;5042956;28;20068;-65
2021/03/28 12:24:45;;;;;;;6.32;1.27;;;;;;;14.12;38.39;102233.69;5046441;28;20059;-65
2021/03/28 12:27:27;;;;;;;10.65;1.60;;;;;;;14.09;38.53;102249.41;5042964;28;20485;-66
2021/03/28 12:29:54;;;;;;;10.38;2.35;;;;;;;13.99;38.50;102236.44;5047622;28;20045;-67
2021/03/28 12:32:54;;;;;;;11.77;2.47;;;;;;;14.23;39.60;102250.13;5045551;28;20045;-67
2021/03/28 12:35:59;;;;;;;8.52;2.10;;;;;;;14.33;39.36;102224.75;5046995;28;20059;-66
2021/03/28 12:38:52;;;;;;;5.88;1.40;;;;;;;14.05;38.09;102237.25;5045353;28;20122;-65
2021/03/28 12:41:32;;;;;;;11.85;1.67;;;;;;;14.00;38.80;102226.81;5030218;28;20049;-65
2021/03/28 12:44:15;;;;;;;10.43;1.65;;;;;;;14.04;38.82;102241.63;5037506;28;20040;-65
2021/03/28 12:50:23;;;;;;;7.82;1.52;;;;;;;14.02;39.58;102243.38;5037912;28;20090;-67
2021/03/28 12:52:53;;;;;;;10.38;3.00;;;;;;;13.87;39.97;102248.75;5045368;28;20049;-67
2021/03/28 12:55:36;;;;;;;9.80;3.05;;;;;;;14.12;40.52;102233.69;5039746;28;20055;-68
2021/03/28 12:58:14;;;;;;;11.05;3.60;;;;;;;14.34;40.51;102222.97;5043656;28;20057;-65
2021/03/28 13:00:49;;;;;;;12.43;3.08;;;;;;;14.45;40.28;102221.13;5039592;28;20053;-65
2021/03/28 13:03:24;;;;;;;10.45;2.60;;;;;;;14.52;39.44;102217.56;5038126;28;20065;-65
2021/03/28 13:06:22;;;;;;;9.52;2.05;;;;;;;14.46;38.72;102228.09;5038314;28;20048;-65
2021/03/28 13:08:51;;;;;;;9.40;2.22;;;;;;;14.52;38.59;102225.41;5047829;28;20053;-68
2021/03/28 13:11:28;;;;;;;6.57;1.42;;;;;;;14.47;37.99;102219.34;5039477;28;20046;-65